createdAt,value
2023-05-22T00:00:03.025Z,28.95
2023-05-22T00:01:03.077Z,30.83
2023-05-22T00:02:03.093Z,27.21
2023-05-22T00:03:03.190Z,29.66
2023-05-22T00:04:03.202Z,28.82
2023-05-22T00:05:03.236Z,28.72
2023-05-22T00:06:03.201Z,28.52
2023-05-22T00:07:03.286Z,33.24
2023-05-22T00:08:03.294Z,30.23
2023-05-22T00:09:03.292Z,27.36
2023-05-22T00:10:03.331Z,28.86
2023-05-22T00:11:03.362Z,30.50
2023-05-22T00:12:03.416Z,30.50
2023-05-22T00:13:03.450Z,29.42
2023-05-22T00:14:03.581Z,28.39
2023-05-22T00:15:03.549Z,26.58
2023-05-22T00:16:03.611Z,29.56
2023-05-22T00:17:03.678Z,29.34
2023-05-22T00:18:03.703Z,31.69
2023-05-22T00:19:03.642Z,31.41
2023-05-22T00:20:03.716Z,30.28
2023-05-22T00:21:03.725Z,26.89
2023-05-22T00:22:03.764Z,30.02
2023-05-22T00:23:03.781Z,30.77
2023-05-22T00:24:03.843Z,29.27
2023-05-22T00:25:03.871Z,27.32
2023-05-22T00:26:03.905Z,29.97
2023-05-22T00:27:03.954Z,31.21
2023-05-22T00:28:03.979Z,28.46
2023-05-22T00:29:03.974Z,31.74
2023-05-22T00:30:04.016Z,31.03
2023-05-22T00:31:04.072Z,31.65
2023-05-22T00:32:04.130Z,33.59
2023-05-22T00:33:04.247Z,25.76
2023-05-22T00:34:04.243Z,30.14
2023-05-22T00:35:04.230Z,34.02
2023-05-22T00:36:04.292Z,31.13
2023-05-22T00:37:04.323Z,29.12
2023-05-22T00:38:04.362Z,31.47
2023-05-22T00:39:04.409Z,30.27
2023-05-22T00:40:04.468Z,28.97
2023-05-22T00:41:04.485Z,31.56
2023-05-22T00:42:04.837Z,31.57
2023-05-22T00:43:04.518Z,30.56
2023-05-22T00:44:04.555Z,29.89
2023-05-22T00:45:04.562Z,32.54
2023-05-22T00:46:04.625Z,26.54
2023-05-22T00:47:04.832Z,29.44
2023-05-22T00:48:04.749Z,28.64
2023-05-22T00:49:04.729Z,30.17
2023-05-22T00:50:04.751Z,29.58
2023-05-22T00:51:04.792Z,29.55
2023-05-22T00:52:05.312Z,29.75
2023-05-22T00:53:04.864Z,29.98
2023-05-22T00:54:04.912Z,28.79
2023-05-22T00:55:04.963Z,31.55
2023-05-22T00:56:04.978Z,34.71
2023-05-22T00:57:05.339Z,29.55
2023-05-22T00:58:05.065Z,30.33
2023-05-22T00:59:05.112Z,29.75
2023-05-22T01:00:05.157Z,29.56
2023-05-22T01:01:05.160Z,28.84
2023-05-22T01:02:05.233Z,28.54
2023-05-22T01:03:05.291Z,29.34
2023-05-22T01:04:05.389Z,32.83
2023-05-22T01:05:05.353Z,31.66
2023-05-22T01:06:05.339Z,32.23
2023-05-22T01:07:05.384Z,32.59
2023-05-22T01:08:05.407Z,30.75
2023-05-22T01:09:05.464Z,27.68
2023-05-22T01:10:05.484Z,28.23
2023-05-22T01:11:05.547Z,29.74
2023-05-22T01:12:05.561Z,28.27
2023-05-22T01:13:05.590Z,25.69
2023-05-22T01:14:05.636Z,28.24
2023-05-22T01:15:05.696Z,31.38
2023-05-22T01:16:05.741Z,28.34
2023-05-22T01:17:05.757Z,32.42
2023-05-22T01:18:05.825Z,31.25
2023-05-22T01:19:05.856Z,27.03
2023-05-22T01:20:05.876Z,30.76
2023-05-22T01:21:05.889Z,29.73
2023-05-22T01:22:05.946Z,30.74
2023-05-22T01:23:05.981Z,31.55
2023-05-22T01:24:05.997Z,28.90
2023-05-22T01:25:06.039Z,29.68
2023-05-22T01:26:06.120Z,31.14
2023-05-22T01:27:06.158Z,31.15
2023-05-22T01:28:06.158Z,30.50
2023-05-22T01:29:06.217Z,29.30
2023-05-22T01:30:06.234Z,29.22
2023-05-22T01:31:06.287Z,30.25
2023-05-22T01:32:06.432Z,28.19
2023-05-22T01:33:06.460Z,32.00
2023-05-22T01:34:06.521Z,26.96
2023-05-22T01:35:06.474Z,30.28
2023-05-22T01:36:06.494Z,30.71
2023-05-22T01:37:06.554Z,30.73
2023-05-22T01:38:06.583Z,27.22
2023-05-22T01:39:06.622Z,30.91
2023-05-22T01:40:06.682Z,28.88
2023-05-22T01:41:06.655Z,30.82
2023-05-22T01:42:06.741Z,28.56
2023-05-22T01:43:06.801Z,28.65
2023-05-22T01:44:06.830Z,29.96
2023-05-22T01:45:06.870Z,31.48
2023-05-22T01:46:06.907Z,28.99
2023-05-22T01:47:06.905Z,30.10
2023-05-22T01:48:06.983Z,28.14
2023-05-22T01:49:07.028Z,31.10
2023-05-22T01:50:07.090Z,28.99
2023-05-22T01:51:07.124Z,29.94
2023-05-22T01:52:07.114Z,29.04
2023-05-22T01:53:07.195Z,30.25
2023-05-22T01:54:07.219Z,31.36
2023-05-22T01:55:07.232Z,26.32
2023-05-22T01:56:07.323Z,29.11
2023-05-22T01:57:07.341Z,31.18
2023-05-22T01:58:07.351Z,28.77
2023-05-22T01:59:07.386Z,26.13
2023-05-22T02:00:07.467Z,26.92
2023-05-22T02:01:07.572Z,28.52
2023-05-22T02:02:07.584Z,29.15
2023-05-22T02:03:07.742Z,29.64
2023-05-22T02:04:07.579Z,30.89
2023-05-22T02:05:07.659Z,30.40
2023-05-22T02:06:07.706Z,29.71
2023-05-22T02:07:07.722Z,33.12
2023-05-22T02:08:07.745Z,28.35
2023-05-22T02:09:07.782Z,31.01
2023-05-22T02:10:07.781Z,31.92
2023-05-22T02:11:07.871Z,29.12
2023-05-22T02:12:07.905Z,29.63
2023-05-22T02:13:07.908Z,31.09
2023-05-22T02:14:07.920Z,33.60
2023-05-22T02:15:07.975Z,30.28
2023-05-22T02:16:08.061Z,31.10
2023-05-22T02:17:08.040Z,31.83
2023-05-22T02:18:08.129Z,28.95
2023-05-22T02:19:08.201Z,26.68
2023-05-22T02:20:08.205Z,31.25
2023-05-22T02:21:08.215Z,33.42
2023-05-22T02:22:08.266Z,30.92
2023-05-22T02:23:08.327Z,34.54
2023-05-22T02:24:08.329Z,30.68
2023-05-22T02:25:08.365Z,32.89
2023-05-22T02:26:08.412Z,32.63
2023-05-22T02:27:08.453Z,34.51
2023-05-22T02:28:08.512Z,33.50
2023-05-22T02:29:08.551Z,33.31
2023-05-22T02:30:08.532Z,34.78
2023-05-22T02:31:08.630Z,32.08
2023-05-22T02:32:08.634Z,34.26
2023-05-22T02:33:08.749Z,31.98
2023-05-22T02:34:08.711Z,33.50
2023-05-22T02:35:08.765Z,33.30
2023-05-22T02:36:08.783Z,32.78
2023-05-22T02:37:08.837Z,30.55
2023-05-22T02:38:08.889Z,34.29
2023-05-22T02:39:08.921Z,31.39
2023-05-22T02:40:08.907Z,30.14
2023-05-22T02:41:09.001Z,32.00
2023-05-22T02:42:09.001Z,30.93
2023-05-22T02:43:09.076Z,32.27
2023-05-22T02:44:09.117Z,31.24
2023-05-22T02:45:09.144Z,31.71
2023-05-22T02:46:09.229Z,32.23
2023-05-22T02:47:09.257Z,31.37
2023-05-22T02:48:09.325Z,32.57
2023-05-22T02:49:09.354Z,34.44
2023-05-22T02:50:09.367Z,32.10
2023-05-22T02:51:09.365Z,31.28
2023-05-22T02:52:09.438Z,32.23
2023-05-22T02:53:09.490Z,28.70
2023-05-22T02:54:09.517Z,32.41
2023-05-22T02:55:09.581Z,33.99
2023-05-22T02:56:09.608Z,27.17
2023-05-22T02:57:09.643Z,30.47
2023-05-22T02:58:09.678Z,32.44
2023-05-22T02:59:09.688Z,30.19
2023-05-22T03:00:09.807Z,31.09
2023-05-22T03:01:09.814Z,34.00
2023-05-22T03:02:10.062Z,33.13
2023-05-22T03:03:09.973Z,30.24
2023-05-22T03:04:10.068Z,34.42
2023-05-22T03:05:09.929Z,31.72
2023-05-22T03:06:09.972Z,31.50
2023-05-22T03:07:10.055Z,32.07
2023-05-22T03:08:10.133Z,33.51
2023-05-22T03:09:10.103Z,31.06
2023-05-22T03:10:10.155Z,32.31
2023-05-22T03:11:10.267Z,31.55
2023-05-22T03:12:10.234Z,30.62
2023-05-22T03:13:10.259Z,31.46
2023-05-22T03:14:10.295Z,31.92
2023-05-22T03:15:10.326Z,32.19
2023-05-22T03:16:10.396Z,30.17
2023-05-22T03:17:10.433Z,27.99
2023-05-22T03:18:10.511Z,30.39
2023-05-22T03:19:10.556Z,32.50
2023-05-22T03:20:10.557Z,33.88
2023-05-22T03:21:10.581Z,32.18
2023-05-22T03:22:10.623Z,30.41
2023-05-22T03:23:10.678Z,32.50
2023-05-22T03:24:10.739Z,33.41
2023-05-22T03:25:10.779Z,29.97
2023-05-22T03:26:10.763Z,29.82
2023-05-22T03:27:10.859Z,32.24
2023-05-22T03:28:10.859Z,32.64
2023-05-22T03:29:11.030Z,27.85
2023-05-22T03:30:10.986Z,31.41
2023-05-22T03:31:11.015Z,31.33
2023-05-22T03:32:11.056Z,28.22
2023-05-22T03:33:11.148Z,31.06
2023-05-22T03:34:11.228Z,34.45
2023-05-22T03:35:11.167Z,32.09
2023-05-22T03:36:11.210Z,31.56
2023-05-22T03:37:11.433Z,30.95
2023-05-22T03:38:11.303Z,30.09
2023-05-22T03:39:11.313Z,30.11
2023-05-22T03:40:11.348Z,29.43
2023-05-22T03:41:11.397Z,26.67
2023-05-22T03:42:11.446Z,33.49
2023-05-22T03:43:11.478Z,30.19
2023-05-22T03:44:11.523Z,30.85
2023-05-22T03:45:11.559Z,27.56
2023-05-22T03:46:11.670Z,33.32
2023-05-22T03:47:11.688Z,34.34
2023-05-22T03:48:11.714Z,30.72
2023-05-22T03:49:11.780Z,31.60
2023-05-22T03:50:11.805Z,31.68
2023-05-22T03:51:11.789Z,28.68
2023-05-22T03:52:11.846Z,29.51
2023-05-22T03:53:11.881Z,31.39
2023-05-22T03:54:11.920Z,33.33
2023-05-22T03:55:12.029Z,33.35
2023-05-22T03:56:12.058Z,28.44
2023-05-22T03:57:12.107Z,28.37
2023-05-22T03:58:12.142Z,29.30
2023-05-22T03:59:12.162Z,29.95
2023-05-22T04:00:12.191Z,32.12
2023-05-22T04:01:12.247Z,31.19
2023-05-22T04:02:12.312Z,31.73
2023-05-22T04:03:12.495Z,31.48
2023-05-22T04:04:12.370Z,31.06
2023-05-22T04:05:12.510Z,30.09
2023-05-22T04:06:12.488Z,29.70
2023-05-22T04:07:12.496Z,26.13
2023-05-22T04:08:12.550Z,32.08
2023-05-22T04:09:12.565Z,29.93
2023-05-22T04:10:12.599Z,33.46
2023-05-22T04:11:12.658Z,30.25
2023-05-22T04:12:12.691Z,30.62
2023-05-22T04:13:12.765Z,33.96
2023-05-22T04:14:12.774Z,30.19
2023-05-22T04:15:12.865Z,29.75
2023-05-22T04:16:13.020Z,29.95
2023-05-22T04:17:12.939Z,29.79
2023-05-22T04:18:12.979Z,28.97
2023-05-22T04:19:13.076Z,33.60
2023-05-22T04:20:13.116Z,30.68
2023-05-22T04:21:13.073Z,30.26
2023-05-22T04:22:13.170Z,29.81
2023-05-22T04:23:13.149Z,31.12
2023-05-22T04:24:13.185Z,30.63
2023-05-22T04:25:13.268Z,27.67
2023-05-22T04:26:13.303Z,30.21
2023-05-22T04:27:13.313Z,32.99
2023-05-22T04:28:13.352Z,31.66
2023-05-22T04:29:13.430Z,31.41
2023-05-22T04:30:13.422Z,30.82
2023-05-22T04:31:13.523Z,33.34
2023-05-22T04:32:13.512Z,30.53
2023-05-22T04:33:13.711Z,27.38
2023-05-22T04:34:13.597Z,29.63
2023-05-22T04:35:13.600Z,29.24
2023-05-22T04:36:13.680Z,31.74
2023-05-22T04:37:13.685Z,30.00
2023-05-22T04:38:13.765Z,31.64
2023-05-22T04:39:13.797Z,29.08
2023-05-22T04:40:13.802Z,31.69
2023-05-22T04:41:13.851Z,31.55
2023-05-22T04:42:13.928Z,28.72
2023-05-22T04:43:13.935Z,31.14
2023-05-22T04:44:13.949Z,34.72
2023-05-22T04:45:13.995Z,31.24
2023-05-22T04:46:14.065Z,30.04
2023-05-22T04:47:14.052Z,29.73
2023-05-22T04:48:14.112Z,30.62
2023-05-22T04:49:14.205Z,30.81
2023-05-22T04:50:14.194Z,30.13
2023-05-22T04:51:14.242Z,30.63
2023-05-22T04:52:14.298Z,31.17
2023-05-22T04:53:14.328Z,31.28
2023-05-22T04:54:14.368Z,28.82
2023-05-22T04:55:14.423Z,31.54
2023-05-22T04:56:18.636Z,31.26
2023-05-22T04:57:15.485Z,31.50
2023-05-22T04:58:14.430Z,31.34
2023-05-22T04:59:14.387Z,29.56
2023-05-22T05:00:14.471Z,30.72
2023-05-22T05:01:14.457Z,30.91
2023-05-22T05:02:14.362Z,31.45
2023-05-22T05:03:14.496Z,32.73
2023-05-22T05:04:14.321Z,30.42
2023-05-22T05:05:14.356Z,30.92
2023-05-22T05:06:14.390Z,28.76
2023-05-22T05:07:14.321Z,31.26
2023-05-22T05:08:14.335Z,28.08
2023-05-22T05:09:14.360Z,31.15
2023-05-22T05:10:14.390Z,31.29
2023-05-22T05:11:14.407Z,31.21
2023-05-22T05:12:14.513Z,32.51
2023-05-22T05:13:14.611Z,29.91
2023-05-22T05:14:14.579Z,30.33
2023-05-22T05:15:14.577Z,30.06
2023-05-22T05:16:14.667Z,29.37
2023-05-22T05:17:14.915Z,28.21
2023-05-22T05:18:14.799Z,28.30
2023-05-22T05:19:14.853Z,29.99
2023-05-22T05:20:14.833Z,29.55
2023-05-22T05:21:14.836Z,29.41
2023-05-22T05:22:14.916Z,29.79
2023-05-22T05:23:14.940Z,29.11
2023-05-22T05:24:14.937Z,29.44
2023-05-22T05:25:14.984Z,29.23
2023-05-22T05:26:15.017Z,29.84
2023-05-22T05:27:15.014Z,29.31
2023-05-22T05:28:15.096Z,30.49
2023-05-22T05:29:15.131Z,32.98
2023-05-22T05:30:15.150Z,27.25
2023-05-22T05:31:15.228Z,28.88
2023-05-22T05:32:15.278Z,30.23
2023-05-22T05:33:15.318Z,29.27
2023-05-22T05:34:15.328Z,30.93
2023-05-22T05:35:15.324Z,29.75
2023-05-22T05:36:15.384Z,29.51
2023-05-22T05:37:15.378Z,30.33
2023-05-22T05:38:15.405Z,27.85
2023-05-22T05:39:15.449Z,29.84
2023-05-22T05:40:15.497Z,32.09
2023-05-22T05:41:15.539Z,29.38
2023-05-22T05:42:15.589Z,32.45
2023-05-22T05:43:15.600Z,30.60
2023-05-22T05:44:15.626Z,28.40
2023-05-22T05:45:15.687Z,28.88
2023-05-22T05:46:15.740Z,29.34
2023-05-22T05:47:15.737Z,29.74
2023-05-22T05:48:15.750Z,32.08
2023-05-22T05:49:15.796Z,29.73
2023-05-22T05:50:15.852Z,31.69
2023-05-22T05:51:15.887Z,31.87
2023-05-22T05:52:15.916Z,30.82
2023-05-22T05:53:15.956Z,32.82
2023-05-22T05:54:15.973Z,32.81
2023-05-22T05:55:16.038Z,31.52
2023-05-22T05:56:16.064Z,32.32
2023-05-22T05:57:16.087Z,31.16
2023-05-22T05:58:16.110Z,30.63
2023-05-22T05:59:16.182Z,32.52
2023-05-22T06:00:16.176Z,33.13
2023-05-22T06:01:16.234Z,30.73
2023-05-22T06:02:16.236Z,29.63
2023-05-22T06:03:16.388Z,33.46
2023-05-22T06:04:16.349Z,31.72
2023-05-22T06:05:16.356Z,34.54
2023-05-22T06:06:16.354Z,31.52
2023-05-22T06:07:16.412Z,30.83
2023-05-22T06:08:16.480Z,32.10
2023-05-22T06:09:16.485Z,32.82
2023-05-22T06:10:16.553Z,31.39
2023-05-22T06:11:16.539Z,30.73
2023-05-22T06:12:16.615Z,33.43
2023-05-22T06:13:16.589Z,31.98
2023-05-22T06:14:16.693Z,30.48
2023-05-22T06:15:16.773Z,31.44
2023-05-22T06:16:16.776Z,32.51
2023-05-22T06:17:16.743Z,31.77
2023-05-22T06:18:16.748Z,33.86
2023-05-22T06:19:16.823Z,30.72
2023-05-22T06:20:16.825Z,34.87
2023-05-22T06:21:16.873Z,34.01
2023-05-22T06:22:16.898Z,34.14
2023-05-22T06:23:16.913Z,38.49
2023-05-22T06:24:17.003Z,39.32
2023-05-22T06:25:16.982Z,37.85
2023-05-22T06:26:17.027Z,41.82
2023-05-22T06:27:17.121Z,42.80
2023-05-22T06:28:17.134Z,46.31
2023-05-22T06:29:17.147Z,44.12
2023-05-22T06:30:28.162Z,45.02
2023-05-22T06:31:18.246Z,45.30
2023-05-22T06:32:17.195Z,46.15
2023-05-22T06:33:17.254Z,46.30
2023-05-22T06:34:17.248Z,49.17
2023-05-22T06:35:17.146Z,53.83
2023-05-22T06:36:17.136Z,53.99
2023-05-22T06:37:17.107Z,53.80
2023-05-22T06:38:17.144Z,53.71
2023-05-22T06:39:17.125Z,54.32
2023-05-22T06:40:17.100Z,56.87
2023-05-22T06:41:17.078Z,58.66
2023-05-22T06:42:17.120Z,58.80
2023-05-22T06:43:17.046Z,56.97
2023-05-22T06:44:17.054Z,61.34
2023-05-22T06:45:17.100Z,58.63
2023-05-22T06:46:17.187Z,58.37
2023-05-22T06:47:17.189Z,57.16
2023-05-22T06:48:17.266Z,59.14
2023-05-22T06:49:17.271Z,58.58
2023-05-22T06:50:17.273Z,58.91
2023-05-22T06:51:17.362Z,58.98
2023-05-22T06:52:17.414Z,61.05
2023-05-22T06:53:17.430Z,58.20
2023-05-22T06:54:17.459Z,53.46
2023-05-22T06:55:17.528Z,56.85
2023-05-22T06:56:17.533Z,51.56
2023-05-22T06:57:17.555Z,52.04
2023-05-22T06:58:17.589Z,61.40
2023-05-22T06:59:18.435Z,63.39
2023-05-22T07:00:19.056Z,68.32
2023-05-22T07:01:17.720Z,71.46
2023-05-22T07:02:17.608Z,79.83
2023-05-22T07:03:17.677Z,73.99
2023-05-22T07:04:17.600Z,83.82
2023-05-22T07:05:17.860Z,98.49
2023-05-22T07:06:17.646Z,99.69
2023-05-22T07:07:17.587Z,106.30
2023-05-22T07:08:18.009Z,112.50
2023-05-22T07:09:17.583Z,114.31
2023-05-22T07:10:17.558Z,115.65
2023-05-22T07:11:17.538Z,122.97
2023-05-22T07:12:17.539Z,127.96
2023-05-22T07:13:17.569Z,127.21
2023-05-22T07:14:17.546Z,134.13
2023-05-22T07:15:17.546Z,134.66
2023-05-22T07:16:17.595Z,144.23
2023-05-22T07:17:17.551Z,143.36
2023-05-22T07:18:17.589Z,151.61
2023-05-22T07:19:17.549Z,148.03
2023-05-22T07:20:17.549Z,155.12
2023-05-22T07:21:17.575Z,163.36
2023-05-22T07:22:17.494Z,158.81
2023-05-22T07:23:17.500Z,165.61
2023-05-22T07:24:17.459Z,165.24
2023-05-22T07:25:17.462Z,167.89
2023-05-22T07:26:17.470Z,171.40
2023-05-22T07:27:17.482Z,171.07
2023-05-22T07:28:17.470Z,175.52
2023-05-22T07:29:17.495Z,180.66
2023-05-22T07:30:17.457Z,181.82
2023-05-22T07:31:17.470Z,181.87
2023-05-22T07:32:17.399Z,186.16
2023-05-22T07:33:17.473Z,185.42
2023-05-22T07:34:17.421Z,187.75
2023-05-22T07:35:17.418Z,192.15
2023-05-22T07:36:17.427Z,192.57
2023-05-22T07:37:17.383Z,194.79
2023-05-22T07:38:17.399Z,193.07
2023-05-22T07:39:17.345Z,196.39
2023-05-22T07:40:17.366Z,196.45
2023-05-22T07:41:17.420Z,196.43
2023-05-22T07:42:17.357Z,195.81
2023-05-22T07:43:17.360Z,198.09
2023-05-22T07:44:17.340Z,200.57
2023-05-22T07:45:17.331Z,203.01
2023-05-22T07:46:17.400Z,201.68
2023-05-22T07:47:17.363Z,209.29
2023-05-22T07:48:17.570Z,213.29
2023-05-22T07:49:17.369Z,197.85
2023-05-22T07:50:17.311Z,205.00
2023-05-22T07:51:17.270Z,200.95
2023-05-22T07:52:17.259Z,194.32
2023-05-22T07:53:17.308Z,189.12
2023-05-22T07:54:17.282Z,190.26
2023-05-22T07:55:17.248Z,187.37
2023-05-22T07:56:17.244Z,187.08
2023-05-22T07:57:17.251Z,188.14
2023-05-22T07:58:17.263Z,184.08
2023-05-22T07:59:17.236Z,181.06
2023-05-22T08:00:17.287Z,180.15
2023-05-22T08:01:17.237Z,174.74
2023-05-22T08:02:17.367Z,167.54
2023-05-22T08:03:17.932Z,165.93
2023-05-22T08:04:17.518Z,163.01
2023-05-22T08:05:17.415Z,159.87
2023-05-22T08:06:17.498Z,160.12
2023-05-22T08:07:17.427Z,151.51
2023-05-22T08:08:17.498Z,144.83
2023-05-22T08:09:17.633Z,144.39
2023-05-22T08:10:17.554Z,143.28
2023-05-22T08:11:17.539Z,145.62
2023-05-22T08:12:17.637Z,142.20
2023-05-22T08:13:17.617Z,139.60
2023-05-22T08:14:17.633Z,135.21
2023-05-22T08:15:17.698Z,134.79
2023-05-22T08:16:17.684Z,134.56
2023-05-22T08:17:17.806Z,131.65
2023-05-22T08:18:17.756Z,122.91
2023-05-22T08:19:17.866Z,123.25
2023-05-22T08:20:17.879Z,122.61
2023-05-22T08:21:17.817Z,118.53
2023-05-22T08:22:17.853Z,119.86
2023-05-22T08:23:17.909Z,118.26
2023-05-22T08:24:17.905Z,117.25
2023-05-22T08:25:17.972Z,116.19
2023-05-22T08:26:17.935Z,117.99
2023-05-22T08:27:17.968Z,117.95
2023-05-22T08:28:17.976Z,111.67
2023-05-22T08:29:18.046Z,107.82
2023-05-22T08:30:17.982Z,109.24
2023-05-22T08:31:18.090Z,108.39
2023-05-22T08:32:25.052Z,101.77
2023-05-22T08:33:18.106Z,102.13
2023-05-22T08:34:18.057Z,102.54
2023-05-22T08:35:18.042Z,100.77
2023-05-22T08:36:18.045Z,99.50
2023-05-22T08:37:18.011Z,100.46
2023-05-22T08:38:17.977Z,97.60
2023-05-22T08:39:18.011Z,96.94
2023-05-22T08:40:17.980Z,95.20
2023-05-22T08:41:17.981Z,84.03
2023-05-22T08:42:17.992Z,77.65
2023-05-22T08:43:17.983Z,67.92
2023-05-22T08:44:17.961Z,58.56
2023-05-22T08:45:17.969Z,61.28
2023-05-22T08:46:17.990Z,64.19
2023-05-22T08:47:17.995Z,62.18
2023-05-22T08:48:17.900Z,71.57
2023-05-22T08:49:17.923Z,72.08
2023-05-22T08:50:17.894Z,73.29
2023-05-22T08:51:17.938Z,75.72
2023-05-22T08:52:17.855Z,79.99
2023-05-22T08:53:17.946Z,81.39
2023-05-22T08:54:17.968Z,84.82
2023-05-22T08:55:17.876Z,81.84
2023-05-22T08:56:17.858Z,85.87
2023-05-22T08:57:17.887Z,89.85
2023-05-22T08:58:17.857Z,95.05
2023-05-22T08:59:17.835Z,84.75
2023-05-22T09:00:17.821Z,88.14
2023-05-22T09:01:17.830Z,95.65
2023-05-22T09:02:17.827Z,97.41
2023-05-22T09:03:17.858Z,101.88
2023-05-22T09:04:18.505Z,101.86
2023-05-22T09:05:17.796Z,107.15
2023-05-22T09:06:17.798Z,108.55
2023-05-22T09:07:17.769Z,109.43
2023-05-22T09:08:20.804Z,118.99
2023-05-22T09:09:17.766Z,130.38
2023-05-22T09:10:17.775Z,127.72
2023-05-22T09:11:17.750Z,127.22
2023-05-22T09:12:17.749Z,128.82
2023-05-22T09:13:17.767Z,135.06
2023-05-22T09:14:17.741Z,143.76
2023-05-22T09:15:17.745Z,145.74
2023-05-22T09:16:17.724Z,149.34
2023-05-22T09:17:17.726Z,148.99
2023-05-22T09:18:17.713Z,151.41
2023-05-22T09:19:17.769Z,149.94
2023-05-22T09:20:17.708Z,150.24
2023-05-22T09:21:29.017Z,150.97
2023-05-22T09:22:18.694Z,151.30
2023-05-22T09:23:17.711Z,146.17
2023-05-22T09:24:17.665Z,150.98
2023-05-22T09:25:17.656Z,149.96
2023-05-22T09:26:17.640Z,155.17
2023-05-22T09:27:17.651Z,158.60
2023-05-22T09:28:17.637Z,155.80
2023-05-22T09:29:17.680Z,158.33
2023-05-22T09:30:17.642Z,160.78
2023-05-22T09:31:17.639Z,168.31
2023-05-22T09:32:17.611Z,171.15
2023-05-22T09:33:17.626Z,173.57
2023-05-22T09:34:17.684Z,174.71
2023-05-22T09:35:17.574Z,165.71
2023-05-22T09:36:17.567Z,160.71
2023-05-22T09:37:17.617Z,158.08
2023-05-22T09:38:17.559Z,156.60
2023-05-22T09:39:17.554Z,153.46
2023-05-22T09:40:17.567Z,148.83
2023-05-22T09:41:17.534Z,145.71
2023-05-22T09:42:17.551Z,147.06
2023-05-22T09:43:17.560Z,152.47
2023-05-22T09:44:17.573Z,151.24
2023-05-22T09:45:17.613Z,146.92
2023-05-22T09:46:18.312Z,128.11
2023-05-22T09:47:17.747Z,99.20
2023-05-22T09:48:18.056Z,105.85
2023-05-22T09:49:17.920Z,115.07
2023-05-22T09:50:17.906Z,96.01
2023-05-22T09:51:17.927Z,99.56
2023-05-22T09:52:17.952Z,67.88
2023-05-22T09:53:17.965Z,15.61
2023-05-22T09:54:18.093Z,56.59
2023-05-22T09:55:17.971Z,98.81
2023-05-22T09:56:24.257Z,109.48
2023-05-22T09:57:19.021Z,110.04
2023-05-22T09:58:18.003Z,111.75
2023-05-22T09:59:17.970Z,51.82
2023-05-22T10:00:17.985Z,82.72
2023-05-22T10:01:18.114Z,110.16
2023-05-22T10:02:17.949Z,108.84
2023-05-22T10:03:17.974Z,113.58
2023-05-22T10:04:17.960Z,118.05
2023-05-22T10:05:17.962Z,72.17
2023-05-22T10:06:17.919Z,85.58
2023-05-22T10:07:17.932Z,57.40
2023-05-22T10:08:17.910Z,101.88
2023-05-22T10:09:19.548Z,119.63
2023-05-22T10:10:17.906Z,117.96
2023-05-22T10:11:17.883Z,92.22
2023-05-22T10:12:17.913Z,111.15
2023-05-22T10:13:17.904Z,113.24
2023-05-22T10:14:17.885Z,90.74
2023-05-22T10:15:17.887Z,81.43
2023-05-22T10:16:17.919Z,93.78
2023-05-22T10:17:17.965Z,119.18
2023-05-22T10:18:17.930Z,111.24
2023-05-22T10:19:18.074Z,119.02
2023-05-22T10:20:18.079Z,107.33
2023-05-22T10:21:18.086Z,109.34
2023-05-22T10:22:18.176Z,90.51
2023-05-22T10:23:18.218Z,62.99
2023-05-22T10:24:18.263Z,78.32
2023-05-22T10:25:18.349Z,87.31
2023-05-22T10:26:18.375Z,89.78
2023-05-22T10:27:18.426Z,71.20
2023-05-22T10:28:18.471Z,97.92
2023-05-22T10:29:18.505Z,72.06
2023-05-22T10:30:18.532Z,47.49
2023-05-22T10:31:18.573Z,25.00
2023-05-22T10:32:18.624Z,42.92
2023-05-22T10:33:18.845Z,77.86
2023-05-22T10:34:18.732Z,80.30
2023-05-22T10:35:18.745Z,79.48
2023-05-22T10:36:18.900Z,87.83
2023-05-22T10:37:20.233Z,98.73
2023-05-22T10:38:18.883Z,105.41
2023-05-22T10:39:18.932Z,115.25
2023-05-22T10:40:18.940Z,113.77
2023-05-22T10:41:19.006Z,142.13
2023-05-22T10:42:19.036Z,139.01
2023-05-22T10:43:19.131Z,144.37
2023-05-22T10:44:19.148Z,147.97
2023-05-22T10:45:19.190Z,147.68
2023-05-22T10:46:19.276Z,149.19
2023-05-22T10:47:19.282Z,155.87
2023-05-22T10:48:19.295Z,147.15
2023-05-22T10:49:19.492Z,154.40
2023-05-22T10:50:19.590Z,145.83
2023-05-22T10:51:19.505Z,141.59
2023-05-22T10:52:19.584Z,150.57
2023-05-22T10:53:19.623Z,142.23
2023-05-22T10:54:19.644Z,145.31
2023-05-22T10:55:19.645Z,139.94
2023-05-22T10:56:19.682Z,144.32
2023-05-22T10:57:19.668Z,143.70
2023-05-22T10:58:19.626Z,148.35
2023-05-22T10:59:19.633Z,137.82
2023-05-22T11:00:19.653Z,139.00
2023-05-22T11:01:19.658Z,141.65
2023-05-22T11:02:19.698Z,139.30
2023-05-22T11:03:19.752Z,144.43
2023-05-22T11:04:19.679Z,139.98
2023-05-22T11:05:19.750Z,142.29
2023-05-22T11:06:19.642Z,132.82
2023-05-22T11:07:19.691Z,139.20
2023-05-22T11:08:19.712Z,136.42
2023-05-22T11:09:19.715Z,135.47
2023-05-22T11:10:19.750Z,137.09
2023-05-22T11:11:19.766Z,134.90
2023-05-22T11:12:19.781Z,133.85
2023-05-22T11:13:19.812Z,131.37
2023-05-22T11:14:19.808Z,131.70
2023-05-22T11:15:19.843Z,131.13
2023-05-22T11:16:19.907Z,131.05
2023-05-22T11:17:19.903Z,129.63
2023-05-22T11:18:19.961Z,129.28
2023-05-22T11:19:23.854Z,124.94
2023-05-22T11:20:19.967Z,125.16
2023-05-22T11:21:20.059Z,125.27
2023-05-22T11:22:19.995Z,125.13
2023-05-22T11:23:19.924Z,123.61
2023-05-22T11:24:19.961Z,124.47
2023-05-22T11:25:19.934Z,122.03
2023-05-22T11:26:19.927Z,121.25
2023-05-22T11:27:19.905Z,119.96
2023-05-22T11:28:19.947Z,120.74
2023-05-22T11:29:19.891Z,117.45
2023-05-22T11:30:19.876Z,116.13
2023-05-22T11:31:19.926Z,116.44
2023-05-22T11:32:19.864Z,116.34
2023-05-22T11:33:19.897Z,114.56
2023-05-22T11:34:19.896Z,113.31
2023-05-22T11:35:19.846Z,111.62
2023-05-22T11:36:19.842Z,109.48
2023-05-22T11:37:19.959Z,109.93
2023-05-22T11:38:19.852Z,108.40
2023-05-22T11:39:19.844Z,107.49
2023-05-22T11:40:19.832Z,105.62
2023-05-22T11:41:19.858Z,104.25
2023-05-22T11:42:19.944Z,103.14
2023-05-22T11:43:20.095Z,104.12
2023-05-22T11:44:20.075Z,102.43
2023-05-22T11:45:20.124Z,100.59
2023-05-22T11:46:20.211Z,99.88
2023-05-22T11:47:20.224Z,98.28
2023-05-22T11:48:20.292Z,98.86
2023-05-22T11:49:20.392Z,95.93
2023-05-22T11:50:33.490Z,98.46
2023-05-22T11:51:21.376Z,98.61
2023-05-22T11:52:20.430Z,96.35
2023-05-22T11:53:20.697Z,96.99
2023-05-22T11:54:20.374Z,90.09
2023-05-22T11:55:20.391Z,89.22
2023-05-22T11:56:20.360Z,90.94
2023-05-22T11:57:20.366Z,88.09
2023-05-22T11:58:20.363Z,87.47
2023-05-22T11:59:20.328Z,88.22
2023-05-22T12:00:20.347Z,84.82
2023-05-22T12:01:20.304Z,86.43
2023-05-22T12:02:20.325Z,85.30
2023-05-22T12:03:20.417Z,82.94
2023-05-22T12:04:20.361Z,83.02
2023-05-22T12:05:20.259Z,82.79
2023-05-22T12:06:20.349Z,80.42
2023-05-22T12:07:20.256Z,76.82
2023-05-22T12:08:20.309Z,78.62
2023-05-22T12:09:20.348Z,76.81
2023-05-22T12:10:20.302Z,75.96
2023-05-22T12:11:20.246Z,76.50
2023-05-22T12:12:22.335Z,72.93
2023-05-22T12:13:20.203Z,73.60
2023-05-22T12:14:20.234Z,71.04
2023-05-22T12:15:20.245Z,71.51
2023-05-22T12:16:20.262Z,71.89
2023-05-22T12:17:20.223Z,70.79
2023-05-22T12:18:20.231Z,70.63
2023-05-22T12:19:20.299Z,68.38
2023-05-22T12:20:20.241Z,68.15
2023-05-22T12:21:20.250Z,64.61
2023-05-22T12:22:22.590Z,65.70
2023-05-22T12:23:20.248Z,67.24
2023-05-22T12:24:20.270Z,66.22
2023-05-22T12:25:20.579Z,65.42
2023-05-22T12:26:20.243Z,63.28
2023-05-22T12:27:20.207Z,64.28
2023-05-22T12:28:20.228Z,67.31
2023-05-22T12:29:20.201Z,66.53
2023-05-22T12:30:20.212Z,66.23
2023-05-22T12:31:20.210Z,67.21
2023-05-22T12:32:20.275Z,66.91
2023-05-22T12:33:20.240Z,65.57
2023-05-22T12:34:20.198Z,64.45
2023-05-22T12:35:20.179Z,63.23
2023-05-22T12:36:20.168Z,62.98
2023-05-22T12:37:20.160Z,63.21
2023-05-22T12:38:20.166Z,60.71
2023-05-22T12:39:20.146Z,60.18
2023-05-22T12:40:20.180Z,60.00
2023-05-22T12:41:20.207Z,61.02
2023-05-22T12:42:20.114Z,59.04
2023-05-22T12:43:20.168Z,57.36
2023-05-22T12:44:20.104Z,56.07
2023-05-22T12:45:20.106Z,56.66